Time;durP1;ratioP1;P1;durP2;ratioP2;P2;SDS_P1;SDS_P2;PMS_P1;PMS_P2;Temp;Humidity;BMP_temperature;BMP_pressure;BME280_temperature;BME280_humidity;BME280_pressure;Samples;Min_cycle;Max_cycle;Signal;HPM_P1;HPM_P2
2021/04/07 00:00:23;;;;;;;0.00;0.00;;;;;;;;;;5067761;28;20193;-65
2021/04/07 00:02:51;;;;;;;0.00;0.00;;;;;;;;;;5071494;28;20228;-65
2021/04/07 00:05:21;;;;;;;0.00;0.00;;;;;;;;;;5072790;28;20964;-65
2021/04/07 00:07:50;;;;;;;0.93;0.93;;;;;;;;;;5069492;28;20306;-65
2021/04/07 00:10:18;;;;;;;0.23;0.07;;;;;;;;;;5068193;28;20202;-65
2021/04/07 00:12:45;;;;;;;2.00;1.53;;;;;;;;;;5069917;28;20209;-65
2021/04/07 00:15:14;;;;;;;0.00;0.00;;;;;;;;;;5073535;28;20846;-65
2021/04/07 00:17:42;;;;;;;0.30;0.30;;;;;;;;;;5068433;28;20198;-65
2021/04/07 00:20:12;;;;;;;0.07;0.07;;;;;;;;;;5066059;28;20710;-64
2021/04/07 00:22:39;;;;;;;0.00;0.00;;;;;;;;;;5067707;28;20197;-65
2021/04/07 00:25:06;;;;;;;0.10;0.10;;;;;;;;;;5070978;28;20190;-65
2021/04/07 00:27:35;;;;;;;0.20;0.20;;;;;;;;;;5067049;28;20699;-65
2021/04/07 00:30:02;;;;;;;0.00;0.00;;;;;;;;;;5066569;28;20190;-65
2021/04/07 00:32:28;;;;;;;0.00;0.00;;;;;;;;;;5066217;28;20345;-64
2021/04/07 00:34:55;;;;;;;0.10;0.10;;;;;;;;;;5065788;28;20202;-65
2021/04/07 00:37:21;;;;;;;0.10;0.10;;;;;;;;;;5065802;28;20182;-65
2021/04/07 00:39:48;;;;;;;0.00;0.00;;;;;;;;;;5069584;28;20206;-65
2021/04/07 00:42:15;;;;;;;0.00;0.00;;;;;;;;;;5058085;28;20190;-65
2021/04/07 00:44:41;;;;;;;0.37;0.37;;;;;;;;;;5076815;28;20977;-65
2021/04/07 00:47:08;;;;;;;0.00;0.00;;;;;;;;;;5071197;28;20179;-64
2021/04/07 00:49:35;;;;;;;0.00;0.00;;;;;;;;;;5071648;28;20853;-64
2021/04/07 00:52:01;;;;;;;1.90;1.80;;;;;;;;;;5069713;28;20209;-64
2021/04/07 00:54:28;;;;;;;0.00;0.00;;;;;;;;;;5065561;28;20192;-64
2021/04/07 00:56:55;;;;;;;0.00;0.00;;;;;;;;;;5070044;28;20190;-64
2021/04/07 00:59:22;;;;;;;0.00;0.00;;;;;;;;;;5070485;28;20266;-63
2021/04/07 01:01:50;;;;;;;0.00;0.00;;;;;;;;;;5070207;28;20185;-63
2021/04/07 01:04:18;;;;;;;0.30;0.30;;;;;;;;;;5070112;28;20956;-64
2021/04/07 01:06:47;;;;;;;0.00;0.00;;;;;;;;;;5069447;28;20294;-64
2021/04/07 01:09:13;;;;;;;0.00;0.00;;;;;;;;;;5073179;28;20216;-64
2021/04/07 01:11:41;;;;;;;0.00;0.00;;;;;;;;;;5062632;28;20221;-65
2021/04/07 01:14:08;;;;;;;3.73;0.87;;;;;;;;;;5047982;28;20324;-65
2021/04/07 01:16:34;;;;;;;0.00;0.00;;;;;;;;;;5066812;28;20940;-65
2021/04/07 01:19:01;;;;;;;0.00;0.00;;;;;;;;;;5064536;28;20259;-65
2021/04/07 01:21:29;;;;;;;0.00;0.00;;;;;;;;;;5070965;28;20632;-64
2021/04/07 01:23:57;;;;;;;0.67;0.10;;;;;;;;;;5071117;28;20204;-65
2021/04/07 01:26:23;;;;;;;0.03;0.03;;;;;;;;;;5055261;28;20734;-65
2021/04/07 01:28:50;;;;;;;0.50;0.50;;;;;;;;;;5071110;28;20174;-64
2021/04/07 01:31:17;;;;;;;0.13;0.13;;;;;;;;;;5071169;28;20305;-64
2021/04/07 01:33:43;;;;;;;1.03;0.30;;;;;;;;;;5048533;28;20261;-64
2021/04/07 01:36:12;;;;;;;0.10;0.10;;;;;;;;;;5062076;28;20220;-65
2021/04/07 01:38:39;;;;;;;0.00;0.00;;;;;;;;;;5049801;28;21426;-65
2021/04/07 01:41:06;;;;;;;0.00;0.00;;;;;;;;;;5066719;28;20262;-64
2021/04/07 01:43:32;;;;;;;0.00;0.00;;;;;;;;;;5055723;28;20221;-64
2021/04/07 01:45:59;;;;;;;0.00;0.00;;;;;;;;;;5072714;28;20209;-64
2021/04/07 01:48:26;;;;;;;0.10;0.10;;;;;;;;;;5068207;28;20840;-64
2021/04/07 01:50:53;;;;;;;0.10;0.10;;;;;;;;;;5072033;28;20212;-64
2021/04/07 01:53:21;;;;;;;0.00;0.00;;;;;;;;;;5067427;28;20213;-65
2021/04/07 01:55:52;;;;;;;0.30;0.23;;;;;;;;;;5075000;28;20326;-64
2021/04/07 01:58:19;;;;;;;0.00;0.00;;;;;;;;;;5070645;28;20282;-64
2021/04/07 02:00:46;;;;;;;1.47;0.10;;;;;;;;;;5071632;28;20172;-65
2021/04/07 02:03:12;;;;;;;0.00;0.00;;;;;;;;;;5068440;28;20201;-65
2021/04/07 02:05:39;;;;;;;0.00;0.00;;;;;;;;;;5069567;28;20647;-64
2021/04/07 02:08:07;;;;;;;0.40;0.40;;;;;;;;;;5068147;28;20209;-65
2021/04/07 02:10:35;;;;;;;0.30;0.30;;;;;;;;;;5067254;28;20196;-65
2021/04/07 02:13:03;;;;;;;0.53;0.40;;;;;;;;;;5068204;28;21096;-65
2021/04/07 02:15:30;;;;;;;0.57;0.57;;;;;;;;;;5067907;28;20191;-64
2021/04/07 02:17:56;;;;;;;0.10;0.10;;;;;;;;;;5071518;28;20277;-64
2021/04/07 02:20:23;;;;;;;0.00;0.00;;;;;;;;;;5068456;28;20186;-65
2021/04/07 02:22:51;;;;;;;0.10;0.10;;;;;;;;;;5048730;28;20205;-65
2021/04/07 02:25:17;;;;;;;0.10;0.10;;;;;;;;;;5069561;28;20190;-66
2021/04/07 02:27:48;;;;;;;0.00;0.00;;;;;;;;;;5078225;28;20288;-65
2021/04/07 02:30:16;;;;;;;0.57;0.50;;;;;;;;;;5072258;28;21042;-64
2021/04/07 02:32:42;;;;;;;0.33;0.33;;;;;;;;;;5070552;28;20229;-64
2021/04/07 02:35:10;;;;;;;0.10;0.10;;;;;;;;;;5067514;28;20193;-64
2021/04/07 02:37:37;;;;;;;0.00;0.00;;;;;;;;;;5070988;28;20271;-64
2021/04/07 02:40:04;;;;;;;3.50;0.87;;;;;;;;;;5054344;28;20258;-65
2021/04/07 02:42:30;;;;;;;0.00;0.00;;;;;;;;;;5075088;28;20198;-65
2021/04/07 02:44:57;;;;;;;0.00;0.00;;;;;;;;;;5079244;28;20272;-64
2021/04/07 02:47:23;;;;;;;0.10;0.10;;;;;;;;;;5080526;28;20190;-64
2021/04/07 02:49:50;;;;;;;0.00;0.00;;;;;;;;;;5076636;28;20214;-65
2021/04/07 02:52:18;;;;;;;0.00;0.00;;;;;;;;;;5078137;28;20213;-65
2021/04/07 02:54:50;;;;;;;0.30;0.30;;;;;;;;;;5073677;28;20190;-64
2021/04/07 02:57:27;;;;;;;0.10;0.10;;;;;;;;;;5061695;28;20240;-64
2021/04/07 02:59:53;;;;;;;0.10;0.10;;;;;;;;;;5081844;28;20200;-64
2021/04/07 03:02:20;;;;;;;0.00;0.00;;;;;;;;;;5078534;28;20224;-65
2021/04/07 03:04:46;;;;;;;0.00;0.00;;;;;;;;;;5071278;28;20196;-64
2021/04/07 03:07:14;;;;;;;0.10;0.10;;;;;;;;;;5072105;28;20195;-65
2021/04/07 03:09:42;;;;;;;0.00;0.00;;;;;;;;;;5070844;28;20200;-65
2021/04/07 03:12:08;;;;;;;0.07;0.07;;;;;;;;;;5072133;28;20202;-65
2021/04/07 03:14:35;;;;;;;0.20;0.20;;;;;;;;;;5072252;28;20190;-64
2021/04/07 03:17:01;;;;;;;1.27;1.07;;;;;;;;;;5077081;28;20186;-64
2021/04/07 03:19:28;;;;;;;0.20;0.20;;;;;;;;;;5055701;28;20186;-64
2021/04/07 03:21:54;;;;;;;1.93;0.27;;;;;;;;;;5072203;28;20273;-64
2021/04/07 03:24:21;;;;;;;0.10;0.10;;;;;;;;;;5061220;28;20194;-64
2021/04/07 03:26:49;;;;;;;3.13;1.80;;;;;;;;;;5078554;28;20531;-64
2021/04/07 03:29:15;;;;;;;21.23;0.93;;;;;;;;;;5078189;28;20193;-64
2021/04/07 03:31:42;;;;;;;0.43;0.43;;;;;;;;;;5079019;28;20317;-64
2021/04/07 03:34:08;;;;;;;0.10;0.10;;;;;;;;;;5079112;28;20192;-64
2021/04/07 03:36:35;;;;;;;0.00;0.00;;;;;;;;;;5073592;28;21177;-65
2021/04/07 03:39:01;;;;;;;0.63;0.20;;;;;;;;;;5072842;28;20250;-65
2021/04/07 03:41:28;;;;;;;0.00;0.00;;;;;;;;;;5071544;28;20196;-64
2021/04/07 03:43:55;;;;;;;0.10;0.10;;;;;;;;;;5072501;28;20186;-64
2021/04/07 03:46:22;;;;;;;0.00;0.00;;;;;;;;;;5074050;28;20185;-64
2021/04/07 03:48:49;;;;;;;0.00;0.00;;;;;;;;;;5068947;28;20183;-64
2021/04/07 03:51:15;;;;;;;0.07;0.07;;;;;;;;;;5070857;28;20181;-64
2021/04/07 03:53:42;;;;;;;0.20;0.10;;;;;;;;;;5075984;28;20202;-64
2021/04/07 03:56:09;;;;;;;2.13;1.40;;;;;;;;;;5073445;28;20280;-64
2021/04/07 03:58:36;;;;;;;0.27;0.27;;;;;;;;;;5079484;28;20238;-64
2021/04/07 04:01:04;;;;;;;0.20;0.20;;;;;;;;;;5069696;28;20829;-64
2021/04/07 04:03:31;;;;;;;0.00;0.00;;;;;;;;;;5073030;28;20240;-65
2021/04/07 04:05:57;;;;;;;0.00;0.00;;;;;;;;;;5069627;28;20269;-65
2021/04/07 04:08:24;;;;;;;0.00;0.00;;;;;;;;;;5067518;28;20916;-64
2021/04/07 04:10:50;;;;;;;0.73;0.53;;;;;;;;;;5073993;28;20196;-65
2021/04/07 04:13:17;;;;;;;0.00;0.00;;;;;;;;;;5070557;28;20686;-64
2021/04/07 04:15:45;;;;;;;0.00;0.00;;;;;;;;;;5072341;28;20196;-65
2021/04/07 04:18:12;;;;;;;0.00;0.00;;;;;;;;;;5067552;28;20900;-64
2021/04/07 04:20:39;;;;;;;0.10;0.10;;;;;;;;;;5069634;28;20380;-64
2021/04/07 04:23:05;;;;;;;0.00;0.00;;;;;;;;;;5066971;28;20906;-64
2021/04/07 04:25:32;;;;;;;0.60;0.47;;;;;;;;;;5069130;28;20248;-64
2021/04/07 04:27:59;;;;;;;0.10;0.10;;;;;;;;;;5070466;28;20178;-64
2021/04/07 04:30:29;;;;;;;0.10;0.10;;;;;;;;;;5071098;28;20182;-64
2021/04/07 04:32:56;;;;;;;0.00;0.00;;;;;;;;;;5064859;28;20226;-64
2021/04/07 04:35:23;;;;;;;0.10;0.10;;;;;;;;;;5070313;28;20189;-63
2021/04/07 04:37:49;;;;;;;0.10;0.10;;;;;;;;;;5070309;28;20193;-64
2021/04/07 04:40:17;;;;;;;0.60;0.60;;;;;;;;;;5066620;28;20181;-64
2021/04/07 04:42:43;;;;;;;0.57;0.57;;;;;;;;;;5068409;28;20318;-64
2021/04/07 04:45:10;;;;;;;0.27;0.27;;;;;;;;;;5073011;28;20188;-64
2021/04/07 04:47:37;;;;;;;0.00;0.00;;;;;;;;;;5073816;28;20188;-64
2021/04/07 04:50:05;;;;;;;0.40;0.40;;;;;;;;;;5069147;28;20696;-64
2021/04/07 04:52:32;;;;;;;0.30;0.30;;;;;;;;;;5068246;28;20220;-64
2021/04/07 04:54:58;;;;;;;0.87;0.50;;;;;;;;;;5068971;28;20190;-64
2021/04/07 04:57:26;;;;;;;1.60;0.70;;;;;;;;;;5070110;28;20243;-64
2021/04/07 04:59:52;;;;;;;0.00;0.00;;;;;;;;;;5069362;28;20189;-64
2021/04/07 05:02:19;;;;;;;0.10;0.10;;;;;;;;;;5070732;28;20193;-64
2021/04/07 05:04:45;;;;;;;0.00;0.00;;;;;;;;;;5072384;28;20195;-64
2021/04/07 05:07:12;;;;;;;0.00;0.00;;;;;;;;;;5071048;28;20189;-64
2021/04/07 05:09:39;;;;;;;2.00;0.57;;;;;;;;;;5072755;28;20188;-64
2021/04/07 05:12:05;;;;;;;0.10;0.03;;;;;;;;;;5071208;28;21103;-65
2021/04/07 05:14:34;;;;;;;0.00;0.00;;;;;;;;;;5065979;28;20308;-64
2021/04/07 05:17:06;;;;;;;0.00;0.00;;;;;;;;;;5068007;28;20182;-64
2021/04/07 05:19:32;;;;;;;1.60;0.50;;;;;;;;;;5071297;28;20185;-64
2021/04/07 05:21:59;;;;;;;0.20;0.10;;;;;;;;;;5073394;28;20186;-64
2021/04/07 05:24:27;;;;;;;0.00;0.00;;;;;;;;;;5070389;28;20285;-64
2021/04/07 05:26:54;;;;;;;0.00;0.00;;;;;;;;;;5073376;28;20614;-64
2021/04/07 05:29:20;;;;;;;0.17;0.17;;;;;;;;;;5074107;28;20191;-64
2021/04/07 05:31:47;;;;;;;0.00;0.00;;;;;;;;;;5071025;28;20298;-65
2021/04/07 05:34:13;;;;;;;0.00;0.00;;;;;;;;;;5068785;28;20218;-65
2021/04/07 05:36:40;;;;;;;0.00;0.00;;;;;;;;;;5067502;28;20251;-64
2021/04/07 05:39:07;;;;;;;0.00;0.00;;;;;;;;;;5069031;28;21027;-64
2021/04/07 05:41:33;;;;;;;0.33;0.30;;;;;;;;;;5068748;28;20177;-64
2021/04/07 05:44:00;;;;;;;0.33;0.33;;;;;;;;;;5071539;28;20200;-64
2021/04/07 05:46:26;;;;;;;0.53;0.53;;;;;;;;;;5067067;28;20189;-64
2021/04/07 05:48:53;;;;;;;0.17;0.17;;;;;;;;;;5069741;28;20654;-64
2021/04/07 05:51:19;;;;;;;0.10;0.10;;;;;;;;;;5074802;28;20188;-64
2021/04/07 05:53:46;;;;;;;0.00;0.00;;;;;;;;;;5072996;28;20209;-64
2021/04/07 05:56:12;;;;;;;0.00;0.00;;;;;;;;;;5074286;28;20178;-64
2021/04/07 05:58:39;;;;;;;1.27;0.53;;;;;;;;;;5073089;28;20182;-63
2021/04/07 06:01:06;;;;;;;0.63;0.63;;;;;;;;;;5063623;28;20256;-64
2021/04/07 06:03:32;;;;;;;2.30;0.67;;;;;;;;;;5071599;28;20861;-64
2021/04/07 06:05:59;;;;;;;0.00;0.00;;;;;;;;;;5049488;28;20189;-64
2021/04/07 06:08:25;;;;;;;0.43;0.40;;;;;;;;;;5072345;28;20187;-64
2021/04/07 06:10:52;;;;;;;0.13;0.13;;;;;;;;;;5066671;28;20215;-64
2021/04/07 06:13:19;;;;;;;0.57;0.20;;;;;;;;;;5067572;28;20235;-64
2021/04/07 06:15:45;;;;;;;0.00;0.00;;;;;;;;;;5072509;28;21022;-64
2021/04/07 06:18:14;;;;;;;0.00;0.00;;;;;;;;;;5068512;28;20493;-64
2021/04/07 06:20:42;;;;;;;0.20;0.20;;;;;;;;;;5070547;28;20177;-64
2021/04/07 06:23:09;;;;;;;0.00;0.00;;;;;;;;;;5069448;28;20298;-64
2021/04/07 06:25:37;;;;;;;8.70;3.40;;;;;;;;;;5067634;28;20613;-64
2021/04/07 06:28:06;;;;;;;0.07;0.07;;;;;;;;;;5068048;28;20673;-64
2021/04/07 06:33:11;;;;;;;0.00;0.00;;;;;;;;;;5071209;28;20256;-64
2021/04/07 06:35:38;;;;;;;3.23;0.77;;;;;;;;;;5079894;28;20685;-64
2021/04/07 06:38:04;;;;;;;0.20;0.20;;;;;;;;;;5080460;28;20189;-64
2021/04/07 06:40:31;;;;;;;0.20;0.20;;;;;;;;;;5075897;28;20238;-64
2021/04/07 06:42:59;;;;;;;0.53;0.53;;;;;;;;;;5068277;28;20189;-64
2021/04/07 06:45:26;;;;;;;0.00;0.00;;;;;;;;;;5072965;28;20407;-64
2021/04/07 14:04:55;;;;;;;0.00;0.00;;;;;;;;;;5080667;27;20909;-56
2021/04/07 14:07:22;;;;;;;0.53;0.53;;;;;;;;;;5076353;28;20187;-57
2021/04/07 14:09:50;;;;;;;0.83;0.83;;;;;;;;;;5076513;28;20412;-58
2021/04/07 14:12:27;;;;;;;0.00;0.00;;;;;;;;;;5076514;28;20197;-57
2021/04/07 14:14:54;;;;;;;0.00;0.00;;;;;;;;;;5076382;28;20293;-58
2021/04/07 14:17:21;;;;;;;1.87;0.70;;;;;;;;;;5075487;28;20187;-58
2021/04/07 14:19:47;;;;;;;0.00;0.00;;;;;;;;;;5076333;28;20181;-57
2021/04/07 14:22:14;;;;;;;1.30;0.20;;;;;;;;;;5076011;28;20248;-57
2021/04/07 14:24:40;;;;;;;4.70;1.00;;;;;;;;;;5075521;28;20234;-58
2021/04/07 14:27:07;;;;;;;0.00;0.00;;;;;;;;;;5077080;28;20248;-58
2021/04/07 14:29:34;;;;;;;2.83;1.80;;;;;;;;;;5076113;28;20183;-58
2021/04/07 14:32:03;;;;;;;0.30;0.30;;;;;;;;;;5075715;28;20190;-56
2021/04/07 14:34:29;;;;;;;0.00;0.00;;;;;;;;;;5075142;28;20186;-55
2021/04/07 14:36:56;;;;;;;0.00;0.00;;;;;;;;;;5075816;28;20270;-58
2021/04/07 14:39:22;;;;;;;0.40;0.10;;;;;;;;;;5075627;28;20188;-58
2021/04/07 14:41:49;;;;;;;0.00;0.00;;;;;;;;;;5075858;28;20207;-58
2021/04/07 14:44:16;;;;;;;0.70;0.60;;;;;;;;;;5073471;28;20206;-58
2021/04/07 14:46:42;;;;;;;0.23;0.23;;;;;;;;;;5076490;28;20708;-56
2021/04/07 14:49:09;;;;;;;0.00;0.00;;;;;;;;;;5076848;28;20283;-57
2021/04/07 14:51:46;;;;;;;1.13;1.13;;;;;;;;;;5075473;28;20602;-57
2021/04/07 14:54:19;;;;;;;0.10;0.10;;;;;;;;;;5082243;28;20180;-58
2021/04/07 14:56:48;;;;;;;0.40;0.37;;;;;;;;;;5079005;28;20716;-58
2021/04/07 14:59:17;;;;;;;0.10;0.03;;;;;;;;;;5075587;28;20203;-57
2021/04/07 15:01:44;;;;;;;0.20;0.20;;;;;;;;;;5076466;28;20186;-58
2021/04/07 15:04:11;;;;;;;1.33;1.17;;;;;;;;;;5076366;28;20676;-55
2021/04/07 15:06:37;;;;;;;0.23;0.20;;;;;;;;;;5076528;28;20650;-56
2021/04/07 15:09:07;;;;;;;0.53;0.20;;;;;;;;;;5078525;28;20216;-57
2021/04/07 15:11:33;;;;;;;0.37;0.37;;;;;;;;;;5075766;28;20193;-57
2021/04/07 15:14:00;;;;;;;0.43;0.43;;;;;;;;;;5075725;28;20312;-58
2021/04/07 15:16:26;;;;;;;0.60;0.47;;;;;;;;;;5061687;28;20191;-56
2021/04/07 15:18:53;;;;;;;0.87;0.30;;;;;;;;;;5062717;28;20903;-58
2021/04/07 15:21:19;;;;;;;0.10;0.00;;;;;;;;;;5062390;28;20183;-56
2021/04/07 15:23:46;;;;;;;0.23;0.23;;;;;;;;;;5062212;28;20299;-58
2021/04/07 15:26:18;;;;;;;0.00;0.00;;;;;;;;;;5060956;28;20180;-58
2021/04/07 15:28:45;;;;;;;2.20;0.77;;;;;;;;;;5061887;28;20213;-57
2021/04/07 15:31:16;;;;;;;0.33;0.30;;;;;;;;;;5063356;28;20239;-61
2021/04/07 15:33:45;;;;;;;0.30;0.27;;;;;;;;;;5062253;28;20187;-55
2021/04/07 15:36:12;;;;;;;0.00;0.00;;;;;;;;;;5061676;28;20250;-57
2021/04/07 15:38:38;;;;;;;0.03;0.03;;;;;;;;;;5062023;28;20201;-58
2021/04/07 15:41:06;;;;;;;0.60;0.60;;;;;;;;;;5061640;28;20238;-57
2021/04/07 15:43:33;;;;;;;0.23;0.23;;;;;;;;;;5062050;28;20212;-58
2021/04/07 15:46:00;;;;;;;0.87;0.87;;;;;;;;;;5065242;28;20249;-58
2021/04/07 15:48:26;;;;;;;0.30;0.23;;;;;;;;;;5061812;28;20188;-57
2021/04/07 15:50:56;;;;;;;0.23;0.17;;;;;;;;;;5061711;28;20191;-57
2021/04/07 15:53:25;;;;;;;0.77;0.30;;;;;;;;;;5061622;28;20316;-56
2021/04/07 15:55:52;;;;;;;0.40;0.30;;;;;;;;;;5061914;28;20195;-57
2021/04/07 15:58:20;;;;;;;0.20;0.20;;;;;;;;;;5061850;28;20187;-56
2021/04/07 16:00:47;;;;;;;0.00;0.00;;;;;;;;;;5061158;28;20210;-58
2021/04/07 16:03:14;;;;;;;0.27;0.23;;;;;;;;;;5061173;28;20310;-57
2021/04/07 16:05:41;;;;;;;7.67;0.70;;;;;;;;;;5061016;28;20195;-57
2021/04/07 16:08:07;;;;;;;0.10;0.10;;;;;;;;;;5060855;28;20268;-56
2021/04/07 16:10:35;;;;;;;20.07;0.50;;;;;;;;;;5061380;28;20191;-58
2021/04/07 16:13:01;;;;;;;5.30;0.53;;;;;;;;;;5060998;28;20191;-56
2021/04/07 16:15:28;;;;;;;4.10;0.73;;;;;;;;;;5060788;28;20400;-57
2021/04/07 16:17:55;;;;;;;0.00;0.00;;;;;;;;;;5061557;28;20234;-57
2021/04/07 16:20:23;;;;;;;0.93;0.33;;;;;;;;;;5061372;28;20205;-57
2021/04/07 16:22:49;;;;;;;2.60;0.93;;;;;;;;;;5060845;28;20240;-57
2021/04/07 16:25:16;;;;;;;3.40;1.20;;;;;;;;;;5060064;28;20183;-58
2021/04/07 16:27:43;;;;;;;0.00;0.00;;;;;;;;;;5066799;28;20172;-56
2021/04/07 16:30:13;;;;;;;0.00;0.00;;;;;;;;;;5061617;28;20637;-58
2021/04/07 16:32:40;;;;;;;0.27;0.20;;;;;;;;;;5060486;28;20521;-57
2021/04/07 16:35:09;;;;;;;0.33;0.27;;;;;;;;;;5060924;28;20262;-57
2021/04/07 16:37:36;;;;;;;1.03;0.47;;;;;;;;;;5060885;28;20238;-58
2021/04/07 16:40:02;;;;;;;0.43;0.27;;;;;;;;;;5061210;28;20179;-57
2021/04/07 16:42:29;;;;;;;4.90;2.97;;;;;;;;;;5060194;28;20183;-58
2021/04/07 16:44:56;;;;;;;0.00;0.00;;;;;;;;;;5065549;28;20260;-58
2021/04/07 16:47:23;;;;;;;0.00;0.00;;;;;;;;;;5061149;28;20186;-57
2021/04/07 16:49:49;;;;;;;1.03;0.00;;;;;;;;;;5060483;28;20187;-58
2021/04/07 16:52:16;;;;;;;0.00;0.00;;;;;;;;;;5060377;28;20180;-56
2021/04/07 16:54:42;;;;;;;0.10;0.10;;;;;;;;;;5059447;28;20295;-58
2021/04/07 16:57:09;;;;;;;0.20;0.10;;;;;;;;;;5060947;28;20187;-58
2021/04/07 16:59:36;;;;;;;0.30;0.30;;;;;;;;;;5059930;28;20211;-58
2021/04/07 17:02:03;;;;;;;0.23;0.20;;;;;;;;;;5058978;28;20190;-57
2021/04/07 17:04:29;;;;;;;0.60;0.37;;;;;;;;;;5058963;28;20238;-58
2021/04/07 17:06:56;;;;;;;0.40;0.40;;;;;;;;;;5059469;28;20349;-58
2021/04/07 17:09:22;;;;;;;0.50;0.37;;;;;;;;;;5058873;28;20188;-58
2021/04/07 17:11:49;;;;;;;0.30;0.30;;;;;;;;;;5059224;28;20679;-58
2021/04/07 17:14:16;;;;;;;0.00;0.00;;;;;;;;;;5057948;28;20254;-58
2021/04/07 17:16:43;;;;;;;2.73;0.93;;;;;;;;;;5058561;28;20215;-58
2021/04/07 17:19:10;;;;;;;8.60;1.07;;;;;;;;;;5060936;28;20181;-57
2021/04/07 17:21:39;;;;;;;0.10;0.10;;;;;;;;;;5059042;28;20197;-58
2021/04/07 17:24:07;;;;;;;2.23;0.77;;;;;;;;;;5065066;28;20383;-57
2021/04/07 17:26:34;;;;;;;3.03;1.43;;;;;;;;;;5059773;28;20185;-58
2021/04/07 17:29:00;;;;;;;0.10;0.10;;;;;;;;;;5058753;28;20180;-58
2021/04/07 17:31:27;;;;;;;2.77;0.70;;;;;;;;;;5058789;28;20294;-56
2021/04/07 17:33:53;;;;;;;0.30;0.30;;;;;;;;;;5058981;28;20668;-56
2021/04/07 17:36:20;;;;;;;7.30;1.00;;;;;;;;;;5058565;28;20193;-57
2021/04/07 17:38:47;;;;;;;0.40;0.30;;;;;;;;;;5061671;28;20175;-58
2021/04/07 17:41:15;;;;;;;0.00;0.00;;;;;;;;;;5061103;28;20190;-58
2021/04/07 17:43:42;;;;;;;0.00;0.00;;;;;;;;;;5058085;28;20734;-57
2021/04/07 17:46:09;;;;;;;0.70;0.70;;;;;;;;;;5052328;28;20266;-58
2021/04/07 17:48:37;;;;;;;0.57;0.57;;;;;;;;;;5056380;28;20187;-58
2021/04/07 17:51:04;;;;;;;0.47;0.40;;;;;;;;;;5058723;28;20316;-56
2021/04/07 17:53:31;;;;;;;0.00;0.00;;;;;;;;;;5058349;28;20184;-57
2021/04/07 17:55:57;;;;;;;0.83;0.83;;;;;;;;;;5057971;28;20187;-57
2021/04/07 17:58:24;;;;;;;4.07;1.70;;;;;;;;;;5058376;28;20185;-58
2021/04/07 18:00:51;;;;;;;3.13;0.50;;;;;;;;;;5058757;28;20640;-58
2021/04/07 18:03:17;;;;;;;0.60;0.60;;;;;;;;;;5057388;28;20238;-57
2021/04/07 18:05:44;;;;;;;0.30;0.30;;;;;;;;;;5058510;28;20182;-57
2021/04/07 18:08:10;;;;;;;0.93;0.90;;;;;;;;;;5058613;28;20210;-58
2021/04/07 18:10:38;;;;;;;0.00;0.00;;;;;;;;;;5059236;28;20249;-57
2021/04/07 18:13:04;;;;;;;0.00;0.00;;;;;;;;;;5059112;28;20191;-58
2021/04/07 18:15:34;;;;;;;0.00;0.00;;;;;;;;;;5059124;28;20186;-56
2021/04/07 18:18:05;;;;;;;0.17;0.17;;;;;;;;;;5059359;28;20201;-57
2021/04/07 18:20:33;;;;;;;0.00;0.00;;;;;;;;;;5058761;28;20209;-58
2021/04/07 18:23:00;;;;;;;0.00;0.00;;;;;;;;;;5061869;28;20694;-58
2021/04/07 18:25:27;;;;;;;2.00;0.43;;;;;;;;;;5059194;28;20576;-57
2021/04/07 18:27:54;;;;;;;0.20;0.20;;;;;;;;;;5059560;28;20221;-56
2021/04/07 18:30:21;;;;;;;0.10;0.10;;;;;;;;;;5058769;28;20189;-57
2021/04/07 18:32:48;;;;;;;0.00;0.00;;;;;;;;;;5057519;28;20527;-58
2021/04/07 18:35:15;;;;;;;0.00;0.00;;;;;;;;;;5058683;28;20179;-58
2021/04/07 18:37:42;;;;;;;0.00;0.00;;;;;;;;;;5058384;28;20270;-56
2021/04/07 18:40:10;;;;;;;3.10;0.77;;;;;;;;;;5058438;28;20197;-57
2021/04/07 18:42:37;;;;;;;0.53;0.33;;;;;;;;;;5057905;28;20182;-57
2021/04/07 18:45:04;;;;;;;5.00;2.43;;;;;;;;;;5058365;28;20187;-57
2021/04/07 18:47:31;;;;;;;1.07;0.97;;;;;;;;;;5057584;28;20718;-58
2021/04/07 18:49:57;;;;;;;0.00;0.00;;;;;;;;;;5060749;28;20182;-56
2021/04/07 18:52:25;;;;;;;0.00;0.00;;;;;;;;;;5061922;28;20381;-57
2021/04/07 18:54:52;;;;;;;0.00;0.00;;;;;;;;;;5061949;28;20190;-58
2021/04/07 18:57:19;;;;;;;2.83;2.63;;;;;;;;;;5062049;28;20183;-58
2021/04/07 18:59:46;;;;;;;0.20;0.20;;;;;;;;;;5061887;28;20195;-57
2021/04/07 19:02:12;;;;;;;0.00;0.00;;;;;;;;;;5062393;28;20189;-57
2021/04/07 19:04:39;;;;;;;2.00;1.80;;;;;;;;;;5061917;28;20231;-58
2021/04/07 19:07:05;;;;;;;1.20;0.20;;;;;;;;;;5062297;28;20735;-58
2021/04/07 19:09:32;;;;;;;0.00;0.00;;;;;;;;;;5064014;28;20175;-59
2021/04/07 19:11:59;;;;;;;0.37;0.37;;;;;;;;;;5061809;28;20277;-58
2021/04/07 19:14:26;;;;;;;0.40;0.40;;;;;;;;;;5061784;28;20261;-58
2021/04/07 19:16:52;;;;;;;0.00;0.00;;;;;;;;;;5069851;28;20666;-58
2021/04/07 19:19:19;;;;;;;0.00;0.00;;;;;;;;;;5063296;28;20191;-58
2021/04/07 19:21:46;;;;;;;5.23;0.37;;;;;;;;;;5061718;28;20295;-58
2021/04/07 19:24:14;;;;;;;1.53;0.77;;;;;;;;;;5061867;28;20301;-61
2021/04/07 19:26:41;;;;;;;0.20;0.20;;;;;;;;;;5061749;28;20470;-61
2021/04/07 19:29:08;;;;;;;0.00;0.00;;;;;;;;;;5061673;28;20187;-61
2021/04/07 19:31:35;;;;;;;1.50;0.13;;;;;;;;;;5061847;28;20568;-61
2021/04/07 19:34:02;;;;;;;11.50;0.87;;;;;;;;;;5061577;28;20198;-61
2021/04/07 19:36:30;;;;;;;0.00;0.00;;;;;;;;;;5061746;28;20240;-61
2021/04/07 19:38:59;;;;;;;0.73;0.73;;;;;;;;;;5061885;28;20186;-61
2021/04/07 19:41:25;;;;;;;0.00;0.00;;;;;;;;;;5061398;28;20199;-61
2021/04/07 19:43:52;;;;;;;0.00;0.00;;;;;;;;;;5070127;28;20214;-62
2021/04/07 19:46:20;;;;;;;0.07;0.07;;;;;;;;;;5061597;28;20185;-61
2021/04/07 19:48:47;;;;;;;0.13;0.13;;;;;;;;;;5061057;28;20179;-63
2021/04/07 19:51:14;;;;;;;0.67;0.37;;;;;;;;;;5061597;28;20279;-58
2021/04/07 19:53:40;;;;;;;2.20;0.27;;;;;;;;;;5061763;28;20190;-58
2021/04/07 19:56:07;;;;;;;0.10;0.10;;;;;;;;;;5061539;28;20191;-58
2021/04/07 19:58:33;;;;;;;0.20;0.10;;;;;;;;;;5061875;28;20206;-57
2021/04/07 20:01:00;;;;;;;0.40;0.40;;;;;;;;;;5061225;28;20195;-57
2021/04/07 20:03:27;;;;;;;0.87;0.87;;;;;;;;;;5061129;28;20561;-57
2021/04/07 20:05:54;;;;;;;3.03;0.57;;;;;;;;;;5060083;28;20175;-58
2021/04/07 20:08:20;;;;;;;0.00;0.00;;;;;;;;;;5060765;28;20245;-57
2021/04/07 20:10:47;;;;;;;5.83;0.50;;;;;;;;;;5060944;28;20950;-58
2021/04/07 20:13:14;;;;;;;0.10;0.10;;;;;;;;;;5061499;28;20260;-58
2021/04/07 20:15:40;;;;;;;0.30;0.10;;;;;;;;;;5061070;28;20303;-56
2021/04/07 20:18:08;;;;;;;0.50;0.40;;;;;;;;;;5062128;28;20256;-58
2021/04/07 20:20:34;;;;;;;2.67;1.90;;;;;;;;;;5061815;28;20195;-58
2021/04/07 20:23:01;;;;;;;6.50;1.27;;;;;;;;;;5061482;28;20642;-59
2021/04/07 20:25:30;;;;;;;0.53;0.53;;;;;;;;;;5067163;28;20185;-55
2021/04/07 20:27:57;;;;;;;0.30;0.30;;;;;;;;;;5056838;28;20213;-57
2021/04/07 20:30:24;;;;;;;0.00;0.00;;;;;;;;;;5061778;28;20183;-58
2021/04/07 20:32:51;;;;;;;0.00;0.00;;;;;;;;;;5061504;28;20181;-58
2021/04/07 20:35:17;;;;;;;1.23;1.17;;;;;;;;;;5061483;28;20259;-58
2021/04/07 20:37:47;;;;;;;2.10;1.03;;;;;;;;;;5061427;28;20787;-58
2021/04/07 20:40:14;;;;;;;0.00;0.00;;;;;;;;;;5061426;28;20198;-59
2021/04/07 20:42:40;;;;;;;1.13;0.60;;;;;;;;;;5060995;28;20190;-58
2021/04/07 20:45:07;;;;;;;0.97;0.87;;;;;;;;;;5061044;28;20216;-58
2021/04/07 20:47:34;;;;;;;0.00;0.00;;;;;;;;;;5061452;28;20179;-55
2021/04/07 20:50:00;;;;;;;1.17;0.47;;;;;;;;;;5063508;28;20175;-57
2021/04/07 20:52:27;;;;;;;0.00;0.00;;;;;;;;;;5060542;28;20322;-58
2021/04/07 20:54:54;;;;;;;1.27;1.17;;;;;;;;;;5060905;28;20252;-58
2021/04/07 20:57:20;;;;;;;0.00;0.00;;;;;;;;;;5060723;28;20508;-57
2021/04/07 20:59:50;;;;;;;1.70;1.43;;;;;;;;;;5063478;28;20178;-58
2021/04/07 21:02:17;;;;;;;0.00;0.00;;;;;;;;;;5060337;28;20197;-57
2021/04/07 21:04:44;;;;;;;0.93;0.63;;;;;;;;;;5060397;28;20554;-57
2021/04/07 21:07:10;;;;;;;0.00;0.00;;;;;;;;;;5060714;28;20282;-58
2021/04/07 21:09:37;;;;;;;0.20;0.20;;;;;;;;;;5060248;28;20225;-56
2021/04/07 21:12:04;;;;;;;0.10;0.10;;;;;;;;;;5062957;28;20174;-58
2021/04/07 21:14:30;;;;;;;0.10;0.10;;;;;;;;;;5060747;28;20270;-58
2021/04/07 21:16:57;;;;;;;0.00;0.00;;;;;;;;;;5060517;28;20191;-58
2021/04/07 21:19:24;;;;;;;1.20;0.50;;;;;;;;;;5060273;28;20257;-57
2021/04/07 21:21:50;;;;;;;1.70;0.87;;;;;;;;;;5060662;28;20627;-57
2021/04/07 21:24:17;;;;;;;0.00;0.00;;;;;;;;;;5059615;28;20596;-58
2021/04/07 21:26:43;;;;;;;0.10;0.10;;;;;;;;;;5060663;28;20183;-58
2021/04/07 21:29:10;;;;;;;0.67;0.67;;;;;;;;;;5062371;28;20176;-57
2021/04/07 21:31:36;;;;;;;0.10;0.00;;;;;;;;;;5052584;28;20782;-57
2021/04/07 21:34:03;;;;;;;0.50;0.10;;;;;;;;;;5058877;28;20626;-58
2021/04/07 21:36:30;;;;;;;0.00;0.00;;;;;;;;;;5058107;28;20182;-57
2021/04/07 21:38:56;;;;;;;0.00;0.00;;;;;;;;;;5059078;28;20215;-57
2021/04/07 21:41:23;;;;;;;3.77;0.60;;;;;;;;;;5059444;28;20209;-57
2021/04/07 21:43:49;;;;;;;0.00;0.00;;;;;;;;;;5061322;28;20217;-56
2021/04/07 21:46:16;;;;;;;0.00;0.00;;;;;;;;;;5058740;28;20244;-58
2021/04/07 21:48:42;;;;;;;0.37;0.37;;;;;;;;;;5059641;28;20335;-58
2021/04/07 21:51:10;;;;;;;0.00;0.00;;;;;;;;;;5059720;28;20320;-58
2021/04/07 21:53:36;;;;;;;1.80;0.10;;;;;;;;;;5059856;28;20205;-57
2021/04/07 21:56:03;;;;;;;0.20;0.20;;;;;;;;;;5059616;28;20178;-56
2021/04/07 21:58:29;;;;;;;0.00;0.00;;;;;;;;;;5060163;28;20210;-57
2021/04/07 22:00:56;;;;;;;2.47;0.10;;;;;;;;;;5059508;28;20233;-58